createdAt,value
2023-05-17T00:00:51.216Z,2.88
2023-05-17T00:03:20.736Z,2.75
2023-05-17T00:05:48.861Z,3.22
2023-05-17T00:08:16.297Z,3.28
2023-05-17T00:10:43.933Z,3.20
2023-05-17T00:13:11.393Z,3.67
2023-05-17T00:15:39.042Z,2.80
2023-05-17T00:18:06.619Z,3.00
2023-05-17T00:20:35.735Z,2.92
2023-05-17T00:23:03.137Z,3.17
2023-05-17T00:25:31.152Z,3.33
2023-05-17T00:27:58.704Z,2.92
2023-05-17T00:30:26.381Z,3.72
2023-05-17T00:32:53.837Z,3.25
2023-05-17T00:35:21.641Z,3.45
2023-05-17T00:37:49.073Z,3.97
2023-05-17T00:40:16.864Z,4.13
2023-05-17T00:42:44.268Z,4.10
2023-05-17T00:45:12.075Z,3.47
2023-05-17T00:47:39.561Z,3.40
2023-05-17T00:50:07.621Z,3.50
2023-05-17T00:52:35.807Z,3.63
2023-05-17T00:55:04.204Z,4.45
2023-05-17T00:57:32.187Z,3.95
2023-05-17T01:00:00.502Z,4.22
2023-05-17T01:02:28.041Z,3.50
2023-05-17T01:04:55.918Z,3.80
2023-05-17T01:07:23.364Z,3.40
2023-05-17T01:09:51.113Z,3.88
2023-05-17T01:12:21.195Z,3.42
2023-05-17T01:14:56.293Z,4.20
2023-05-17T01:17:27.757Z,3.40
2023-05-17T01:19:58.637Z,3.95
2023-05-17T01:22:47.825Z,3.40
2023-05-17T01:25:34.243Z,3.08
2023-05-17T01:28:02.663Z,3.70
2023-05-17T01:30:30.637Z,3.53
2023-05-17T01:33:01.212Z,2.95
2023-05-17T01:35:29.159Z,3.55
2023-05-17T01:37:56.711Z,4.13
2023-05-17T01:40:24.860Z,4.65
2023-05-17T01:43:00.658Z,3.67
2023-05-17T01:45:42.276Z,3.78
2023-05-17T01:48:24.474Z,3.17
2023-05-17T01:50:53.162Z,3.35
2023-05-17T01:53:31.129Z,3.28
2023-05-17T01:56:02.197Z,3.80
2023-05-17T01:58:30.420Z,4.10
2023-05-17T02:00:59.559Z,3.60
2023-05-17T02:03:28.508Z,4.57
2023-05-17T02:05:56.155Z,3.85
2023-05-17T02:08:23.578Z,3.75
2023-05-17T02:10:51.302Z,3.55
2023-05-17T02:13:18.623Z,3.67
2023-05-17T02:15:46.507Z,4.55
2023-05-17T02:18:14.023Z,3.25
2023-05-17T02:20:41.784Z,4.20
2023-05-17T02:23:09.170Z,3.55
2023-05-17T02:25:36.872Z,3.67
2023-05-17T02:28:04.361Z,4.63
2023-05-17T02:30:32.003Z,4.07
2023-05-17T02:32:59.472Z,3.70
2023-05-17T02:35:27.299Z,4.00
2023-05-17T02:37:54.827Z,4.25
2023-05-17T02:40:22.449Z,5.05
2023-05-17T02:42:49.863Z,4.05
2023-05-17T02:45:17.529Z,4.47
2023-05-17T02:47:44.983Z,4.18
2023-05-17T02:50:12.770Z,4.32
2023-05-17T02:52:40.200Z,4.75
2023-05-17T02:55:08.010Z,3.75
2023-05-17T02:57:35.348Z,4.10
2023-05-17T03:00:03.550Z,4.38
2023-05-17T03:02:31.283Z,3.28
2023-05-17T03:04:59.008Z,4.05
2023-05-17T03:07:26.347Z,4.03
2023-05-17T03:09:54.004Z,4.32
2023-05-17T03:12:21.327Z,4.00
2023-05-17T03:14:49.099Z,3.88
2023-05-17T03:17:16.484Z,3.42
2023-05-17T03:19:44.293Z,4.28
2023-05-17T03:22:11.783Z,3.72
2023-05-17T03:24:39.437Z,3.72
2023-05-17T03:27:06.943Z,4.10
2023-05-17T03:29:34.627Z,3.47
2023-05-17T03:32:02.125Z,4.30
2023-05-17T03:34:29.811Z,3.05
2023-05-17T03:36:57.183Z,4.00
2023-05-17T03:39:24.853Z,4.65
2023-05-17T03:41:52.216Z,3.80
2023-05-17T03:44:20.143Z,4.10
2023-05-17T03:46:47.605Z,2.08
2023-05-17T03:49:15.402Z,3.22
2023-05-17T03:51:42.926Z,3.67
2023-05-17T03:54:11.201Z,3.83
2023-05-17T03:56:38.565Z,3.10
2023-05-17T03:59:06.556Z,3.33
2023-05-17T04:01:34.296Z,3.00
2023-05-17T04:04:04.463Z,2.72
2023-05-17T04:06:31.938Z,3.25
2023-05-17T04:09:00.071Z,3.08
2023-05-17T04:11:27.854Z,2.17
2023-05-17T04:13:56.812Z,4.57
2023-05-17T04:16:24.216Z,3.00
2023-05-17T04:18:53.090Z,2.42
2023-05-17T04:21:20.730Z,1.77
2023-05-17T04:23:48.710Z,1.40
2023-05-17T04:26:16.148Z,1.90
2023-05-17T04:28:43.747Z,2.40
2023-05-17T04:31:11.282Z,2.78
2023-05-17T04:33:38.973Z,1.98
2023-05-17T04:36:06.683Z,2.50
2023-05-17T04:38:34.539Z,1.42
2023-05-17T04:41:04.523Z,1.60
2023-05-17T04:43:33.226Z,2.30
2023-05-17T04:46:00.869Z,2.33
2023-05-17T04:48:32.753Z,2.25
2023-05-17T04:51:06.539Z,2.05
2023-05-17T04:53:34.246Z,2.05
2023-05-17T04:56:01.689Z,2.25
2023-05-17T04:58:29.365Z,1.20
2023-05-17T05:00:56.798Z,1.67
2023-05-17T05:03:24.673Z,2.30
2023-05-17T05:05:52.047Z,2.05
2023-05-17T05:08:19.712Z,2.38
2023-05-17T05:10:47.518Z,1.52
2023-05-17T05:13:15.182Z,2.58
2023-05-17T05:15:42.540Z,3.15
2023-05-17T05:18:10.305Z,2.55
2023-05-17T05:20:37.704Z,2.03
2023-05-17T05:23:06.183Z,2.80
2023-05-17T05:25:34.119Z,2.92
2023-05-17T05:28:01.776Z,2.17
2023-05-17T05:30:29.362Z,2.30
2023-05-17T05:32:57.187Z,1.90
2023-05-17T05:35:29.562Z,2.10
2023-05-17T05:37:58.465Z,1.75
2023-05-17T05:40:26.014Z,2.38
2023-05-17T05:42:53.826Z,2.08
2023-05-17T05:45:21.798Z,2.25
2023-05-17T05:47:49.545Z,2.47
2023-05-17T05:50:17.071Z,2.85
2023-05-17T05:52:44.723Z,2.40
2023-05-17T05:55:12.290Z,3.00
2023-05-17T05:57:39.908Z,3.58
2023-05-17T06:00:07.695Z,2.65
2023-05-17T06:02:36.106Z,2.53
2023-05-17T06:05:03.847Z,2.33
2023-05-17T06:07:31.501Z,2.50
2023-05-17T06:09:58.819Z,2.63
2023-05-17T06:12:26.477Z,2.63
2023-05-17T06:14:53.808Z,1.90
2023-05-17T06:17:21.658Z,2.10
2023-05-17T06:19:52.655Z,2.80
2023-05-17T06:22:20.610Z,2.92
2023-05-17T06:24:48.844Z,3.03
2023-05-17T06:27:17.180Z,2.22
2023-05-17T06:29:44.677Z,2.38
2023-05-17T06:32:12.384Z,2.30
2023-05-17T06:34:40.072Z,2.10
2023-05-17T06:37:07.719Z,2.72
2023-05-17T06:39:35.136Z,2.50
2023-05-17T06:42:02.852Z,2.95
2023-05-17T06:44:30.236Z,2.33
2023-05-17T06:46:57.995Z,3.08
2023-05-17T06:49:25.430Z,2.80
2023-05-17T06:51:55.658Z,2.53
2023-05-17T06:54:23.044Z,2.78
2023-05-17T06:56:51.029Z,2.10
2023-05-17T06:59:18.531Z,2.33
2023-05-17T07:01:46.208Z,2.88
2023-05-17T07:04:13.807Z,3.22
2023-05-17T07:06:41.656Z,3.35
2023-05-17T07:09:09.118Z,2.78
2023-05-17T07:11:36.815Z,2.60
2023-05-17T07:14:04.244Z,3.92
2023-05-17T07:16:31.941Z,3.33
2023-05-17T07:18:59.457Z,2.30
2023-05-17T07:21:27.170Z,2.80
2023-05-17T07:23:54.540Z,2.30
2023-05-17T07:26:22.494Z,2.17
2023-05-17T07:28:49.918Z,2.65
2023-05-17T07:31:17.645Z,2.33
2023-05-17T07:33:45.101Z,2.70
2023-05-17T07:36:12.968Z,3.55
2023-05-17T07:38:40.309Z,2.35
2023-05-17T07:41:13.323Z,2.70
2023-05-17T07:43:40.697Z,1.77
2023-05-17T07:46:08.532Z,1.80
2023-05-17T07:48:36.046Z,3.17
2023-05-17T07:51:03.810Z,2.88
2023-05-17T07:53:31.318Z,2.85
2023-05-17T07:55:58.992Z,2.90
2023-05-17T07:58:26.313Z,2.58
2023-05-17T08:00:54.303Z,2.15
2023-05-17T08:03:21.652Z,2.58
2023-05-17T08:05:49.327Z,2.75
2023-05-17T08:08:16.811Z,1.80
2023-05-17T08:10:44.466Z,3.42
2023-05-17T08:13:11.844Z,2.40
2023-05-17T08:15:39.460Z,2.88
2023-05-17T08:18:06.917Z,2.38
2023-05-17T08:20:34.701Z,3.05
2023-05-17T08:23:02.080Z,4.47
2023-05-17T08:25:29.995Z,2.35
2023-05-17T08:27:57.568Z,3.50
2023-05-17T08:30:28.908Z,3.05
2023-05-17T08:32:57.155Z,2.70
2023-05-17T08:35:28.430Z,2.85
2023-05-17T08:37:56.406Z,3.38
2023-05-17T08:40:24.123Z,3.22
2023-05-17T08:42:51.774Z,3.05
2023-05-17T08:45:19.418Z,3.13
2023-05-17T08:47:47.094Z,3.42
2023-05-17T08:50:14.839Z,2.50
2023-05-17T08:52:45.086Z,2.47
2023-05-17T08:55:16.539Z,3.00
2023-05-17T08:57:44.193Z,1.85
2023-05-17T09:00:15.891Z,2.13
2023-05-17T09:02:43.936Z,4.13
2023-05-17T09:05:13.586Z,2.67
2023-05-17T09:07:42.441Z,2.58
2023-05-17T09:10:10.612Z,2.15
2023-05-17T09:12:37.923Z,2.33
2023-05-17T09:15:17.777Z,1.88
2023-05-17T09:17:52.034Z,1.88
2023-05-17T09:20:24.349Z,3.00
2023-05-17T09:22:56.010Z,2.75
2023-05-17T09:25:25.078Z,2.75
2023-05-17T09:27:53.426Z,2.35
2023-05-17T09:30:27.572Z,2.15
2023-05-17T09:32:55.805Z,4.78
2023-05-17T09:35:32.769Z,3.30
2023-05-17T09:38:11.337Z,2.95
2023-05-17T09:40:46.747Z,3.92
2023-05-17T09:43:14.294Z,2.53
2023-05-17T09:45:42.007Z,4.45
2023-05-17T09:48:16.393Z,3.70
2023-05-17T09:50:45.382Z,3.45
2023-05-17T09:53:31.819Z,4.05
2023-05-17T09:56:03.761Z,3.03
2023-05-17T09:58:32.684Z,3.65
2023-05-17T10:01:01.815Z,4.00
2023-05-17T10:03:33.304Z,3.67
2023-05-17T10:06:02.302Z,1.80
2023-05-17T10:08:30.190Z,3.08
2023-05-17T10:11:00.818Z,4.03
2023-05-17T10:13:31.521Z,3.28
2023-05-17T10:16:01.119Z,3.60
2023-05-17T10:18:29.419Z,3.22
2023-05-17T10:20:57.640Z,3.58
2023-05-17T10:23:25.199Z,2.85
2023-05-17T10:25:52.969Z,4.15
2023-05-17T10:28:21.007Z,4.10
2023-05-17T10:30:49.891Z,4.47
2023-05-17T10:33:18.137Z,2.63
2023-05-17T10:35:47.166Z,2.88
2023-05-17T10:38:14.511Z,3.10
2023-05-17T10:40:43.881Z,3.65
2023-05-17T10:43:13.015Z,2.92
2023-05-17T10:45:42.525Z,2.65
2023-05-17T10:48:10.258Z,3.45
2023-05-17T10:50:54.109Z,2.55
2023-05-17T10:53:28.452Z,1.67
2023-05-17T10:55:56.651Z,2.55
2023-05-17T10:58:26.892Z,2.72
2023-05-17T11:00:55.944Z,1.88
2023-05-17T11:03:30.322Z,3.22
2023-05-17T11:06:24.501Z,2.83
2023-05-17T11:09:09.445Z,3.00
2023-05-17T11:11:37.231Z,3.17
2023-05-17T11:14:06.403Z,2.58
2023-05-17T11:16:38.437Z,2.10
2023-05-17T11:19:10.489Z,1.92
2023-05-17T11:21:48.069Z,3.10
2023-05-17T11:24:17.503Z,2.20
2023-05-17T11:26:46.289Z,2.00
2023-05-17T11:29:14.573Z,2.00
2023-05-17T11:31:46.291Z,1.75
2023-05-17T11:34:13.750Z,1.98
2023-05-17T11:36:52.041Z,1.88
2023-05-17T11:39:26.881Z,2.92
2023-05-17T11:41:55.650Z,2.30
2023-05-17T11:44:43.252Z,1.92
2023-05-17T11:47:11.552Z,2.20
2023-05-17T11:49:39.642Z,2.80
2023-05-17T11:52:08.446Z,2.92
2023-05-17T11:54:39.305Z,3.25
2023-05-17T11:57:07.070Z,3.15
2023-05-17T11:59:41.404Z,1.92
2023-05-17T12:02:09.930Z,1.50
2023-05-17T12:04:38.520Z,2.25
2023-05-17T12:07:10.414Z,1.73
2023-05-17T12:09:40.003Z,2.28
2023-05-17T12:12:08.563Z,2.17
2023-05-17T12:14:36.193Z,1.17
2023-05-17T12:17:04.659Z,2.58
2023-05-17T12:19:33.087Z,1.65
2023-05-17T12:22:13.925Z,2.08
2023-05-17T12:24:44.555Z,1.55
2023-05-17T12:27:12.359Z,2.15
2023-05-17T12:29:40.206Z,2.35
2023-05-17T12:32:08.732Z,1.90
2023-05-17T12:34:36.520Z,2.50
2023-05-17T12:37:04.600Z,2.40
2023-05-17T12:39:32.214Z,1.42
2023-05-17T12:41:59.969Z,2.00
2023-05-17T12:44:27.391Z,2.67
2023-05-17T12:46:56.321Z,1.83
2023-05-17T12:49:24.261Z,2.75
2023-05-17T12:51:51.992Z,2.50
2023-05-17T12:54:29.477Z,2.95
2023-05-17T12:56:57.954Z,1.98
2023-05-17T12:59:26.081Z,2.03
2023-05-17T13:01:57.817Z,2.25
2023-05-17T13:04:32.786Z,1.25
2023-05-17T13:07:04.964Z,1.92
2023-05-17T13:09:33.397Z,1.83
2023-05-17T13:12:02.149Z,1.88
2023-05-17T13:14:42.676Z,2.58
2023-05-17T13:17:13.434Z,2.10
2023-05-17T13:19:41.015Z,2.38
2023-05-17T13:22:08.913Z,1.85
2023-05-17T13:24:37.121Z,3.90
2023-05-17T13:27:05.372Z,1.80
2023-05-17T13:29:39.389Z,2.10
2023-05-17T13:32:08.042Z,1.33
2023-05-17T13:34:35.664Z,2.50
2023-05-17T13:37:03.435Z,1.50
2023-05-17T13:39:30.922Z,1.85
2023-05-17T13:41:59.222Z,1.83
2023-05-17T13:44:26.765Z,1.27
2023-05-17T13:46:54.480Z,1.70
2023-05-17T13:49:21.976Z,1.65
2023-05-17T13:51:49.712Z,1.42
2023-05-17T13:54:17.327Z,2.05
2023-05-17T13:56:45.045Z,2.67
2023-05-17T13:59:12.822Z,1.83
2023-05-17T14:01:41.985Z,1.65
2023-05-17T14:04:09.539Z,1.20
2023-05-17T14:06:37.174Z,1.73
2023-05-17T14:09:04.597Z,1.58
2023-05-17T14:11:32.260Z,1.73
2023-05-17T14:14:01.297Z,2.97
2023-05-17T14:16:29.195Z,3.13
2023-05-17T14:18:56.751Z,2.08
2023-05-17T14:21:24.454Z,4.40
2023-05-17T14:23:52.067Z,4.28
2023-05-17T14:26:19.777Z,4.53
2023-05-17T14:28:47.090Z,1.92
2023-05-17T14:31:14.897Z,1.27
2023-05-17T14:33:42.454Z,1.10
2023-05-17T14:36:12.514Z,1.58
2023-05-17T14:38:41.517Z,2.40
2023-05-17T14:41:09.228Z,1.77
2023-05-17T14:43:36.625Z,2.00
2023-05-17T14:46:04.582Z,2.30
2023-05-17T14:48:32.999Z,2.30
2023-05-17T14:51:03.234Z,2.35
2023-05-17T14:53:30.869Z,2.97
2023-05-17T14:55:59.067Z,2.13
2023-05-17T14:58:26.849Z,1.88
2023-05-17T15:01:02.461Z,1.85
2023-05-17T15:03:34.204Z,1.92
2023-05-17T15:06:04.553Z,1.65
2023-05-17T15:08:34.827Z,3.00
2023-05-17T15:11:02.957Z,3.30
2023-05-17T15:13:30.396Z,1.77
2023-05-17T15:15:58.816Z,2.72
2023-05-17T15:18:26.424Z,2.17
2023-05-17T15:20:54.060Z,4.13
2023-05-17T15:23:21.492Z,2.85
2023-05-17T15:25:49.193Z,3.38
2023-05-17T15:28:19.854Z,3.33
2023-05-17T15:30:48.130Z,3.03
2023-05-17T15:33:16.055Z,2.33
2023-05-17T15:35:44.733Z,5.72
2023-05-17T15:38:12.168Z,5.05
2023-05-17T15:40:39.809Z,1.38
2023-05-17T15:43:07.168Z,1.42
2023-05-17T15:45:34.820Z,2.05
2023-05-17T15:48:02.548Z,1.40
2023-05-17T15:50:30.306Z,1.85
2023-05-17T15:52:57.615Z,2.97
2023-05-17T15:55:25.678Z,2.30
2023-05-17T15:57:53.148Z,1.95
2023-05-17T16:00:21.040Z,1.83
2023-05-17T16:02:48.361Z,1.40
2023-05-17T16:05:16.418Z,1.45
2023-05-17T16:07:43.812Z,1.95
2023-05-17T16:10:11.720Z,1.85
2023-05-17T16:12:39.124Z,2.30
2023-05-17T16:15:07.735Z,1.90
2023-05-17T16:17:35.141Z,2.08
2023-05-17T16:20:02.999Z,1.45
2023-05-17T16:22:30.551Z,1.63
2023-05-17T16:24:58.384Z,1.65
2023-05-17T16:27:25.690Z,1.35
2023-05-17T16:29:53.376Z,1.50
2023-05-17T16:32:21.029Z,2.17
2023-05-17T16:34:48.728Z,1.60
2023-05-17T16:37:16.174Z,1.77
2023-05-17T16:39:43.855Z,2.10
2023-05-17T16:42:11.506Z,2.35
2023-05-17T16:44:39.522Z,2.13
2023-05-17T16:47:06.915Z,1.92
2023-05-17T16:49:36.399Z,1.63
2023-05-17T16:52:04.319Z,2.10
2023-05-17T16:54:33.642Z,3.83
2023-05-17T16:57:02.131Z,2.17
2023-05-17T16:59:29.817Z,1.35
2023-05-17T17:01:58.297Z,2.10
2023-05-17T17:04:26.087Z,1.80
2023-05-17T17:06:53.478Z,1.85
2023-05-17T17:09:21.674Z,3.25
2023-05-17T17:11:49.113Z,2.55
2023-05-17T17:14:16.752Z,2.17
2023-05-17T17:16:44.555Z,1.73
2023-05-17T17:19:12.882Z,1.85
2023-05-17T17:21:42.267Z,2.45
2023-05-17T17:24:10.000Z,1.70
2023-05-17T17:26:37.346Z,1.98
2023-05-17T17:29:25.028Z,2.28
2023-05-17T17:31:52.462Z,3.70
2023-05-17T17:34:20.164Z,2.15
2023-05-17T17:36:47.511Z,1.92
2023-05-17T17:39:17.242Z,2.83
2023-05-17T17:41:44.609Z,2.20
2023-05-17T17:44:12.347Z,3.25
2023-05-17T17:46:39.829Z,2.03
2023-05-17T17:49:07.477Z,2.03
2023-05-17T17:51:35.050Z,2.28
2023-05-17T17:54:05.389Z,2.10
2023-05-17T17:56:33.179Z,2.25
2023-05-17T17:59:01.094Z,3.90
2023-05-17T18:01:30.976Z,8.15
2023-05-17T18:03:59.137Z,12.85
2023-05-17T18:06:26.541Z,18.88
2023-05-17T18:08:54.286Z,12.13
2023-05-17T18:11:21.637Z,6.13
2023-05-17T18:13:49.365Z,3.83
2023-05-17T18:16:16.952Z,6.32
2023-05-17T18:18:44.734Z,7.15
2023-05-17T18:21:12.652Z,7.40
2023-05-17T18:23:40.431Z,4.93
2023-05-17T18:26:07.940Z,3.47
2023-05-17T18:28:42.590Z,2.20
2023-05-17T18:31:10.578Z,3.53
2023-05-17T18:33:38.284Z,5.70
2023-05-17T18:36:05.870Z,5.45
2023-05-17T18:38:35.421Z,9.95
2023-05-17T18:41:02.838Z,6.22
2023-05-17T18:43:33.497Z,5.20
2023-05-17T18:46:00.994Z,4.25
2023-05-17T18:48:28.737Z,5.40
2023-05-17T18:50:57.400Z,6.05
2023-05-17T18:53:25.287Z,4.93
2023-05-17T18:55:52.713Z,4.70
2023-05-17T18:58:20.648Z,5.07
2023-05-17T19:00:48.576Z,5.10
2023-05-17T19:03:16.365Z,4.85
2023-05-17T19:05:43.724Z,4.78
2023-05-17T19:08:11.384Z,3.08
2023-05-17T19:10:38.754Z,2.63
2023-05-17T19:13:06.750Z,2.30
2023-05-17T19:15:34.352Z,1.70
2023-05-17T19:18:02.035Z,2.10
2023-05-17T19:20:29.754Z,1.83
2023-05-17T19:22:57.635Z,2.80
2023-05-17T19:25:25.020Z,3.33
2023-05-17T19:27:52.909Z,2.53
2023-05-17T19:30:20.332Z,3.90
2023-05-17T19:32:47.995Z,4.90
2023-05-17T19:35:15.519Z,5.05
2023-05-17T19:37:43.261Z,4.30
2023-05-17T19:40:10.918Z,4.97
2023-05-17T19:42:39.638Z,3.40
2023-05-17T19:45:09.504Z,2.50
2023-05-17T19:47:37.243Z,2.90
2023-05-17T19:50:04.639Z,5.60
2023-05-17T19:52:32.329Z,5.93
2023-05-17T19:54:59.688Z,4.65
2023-05-17T19:57:27.500Z,3.88
2023-05-17T19:59:55.055Z,2.58
2023-05-17T20:02:22.991Z,8.73
2023-05-17T20:04:50.464Z,3.55
2023-05-17T20:07:18.533Z,2.25
2023-05-17T20:09:46.354Z,1.55
2023-05-17T20:12:14.650Z,3.05
2023-05-17T20:14:42.127Z,2.00
2023-05-17T20:17:09.758Z,2.35
2023-05-17T20:19:38.521Z,2.22
2023-05-17T20:22:06.665Z,2.72
2023-05-17T20:24:34.926Z,2.67
2023-05-17T20:27:02.948Z,1.83
2023-05-17T20:29:30.553Z,2.28
2023-05-17T20:31:58.489Z,1.70
2023-05-17T20:34:29.909Z,2.22
2023-05-17T20:36:58.469Z,2.60
2023-05-17T20:39:30.950Z,2.60
2023-05-17T20:42:01.200Z,2.28
2023-05-17T20:44:28.685Z,2.20
2023-05-17T20:46:59.339Z,2.25
2023-05-17T20:49:26.711Z,2.58
2023-05-17T20:52:01.699Z,3.00
2023-05-17T20:54:30.297Z,2.53
2023-05-17T20:57:01.973Z,2.45
2023-05-17T20:59:29.324Z,2.80
2023-05-17T21:01:57.564Z,3.53
2023-05-17T21:04:25.056Z,3.58
2023-05-17T21:06:57.993Z,2.58
2023-05-17T21:09:25.762Z,1.77
2023-05-17T21:11:53.549Z,2.55
2023-05-17T21:14:21.018Z,2.78
2023-05-17T21:16:48.666Z,2.38
2023-05-17T21:19:16.108Z,3.10
2023-05-17T21:21:44.244Z,2.60
2023-05-17T21:24:11.632Z,2.70
2023-05-17T21:26:40.857Z,2.20
2023-05-17T21:29:08.739Z,2.95
2023-05-17T21:31:36.526Z,2.42
2023-05-17T21:34:04.097Z,2.72
2023-05-17T21:36:31.753Z,2.05
2023-05-17T21:38:59.108Z,1.95
2023-05-17T21:41:26.838Z,2.60
2023-05-17T21:43:54.191Z,2.80
2023-05-17T21:46:21.841Z,2.30
2023-05-17T21:48:49.224Z,2.30
2023-05-17T21:51:17.201Z,3.13
2023-05-17T21:53:44.623Z,2.60
2023-05-17T21:56:12.313Z,2.63
2023-05-17T21:58:39.694Z,3.05
2023-05-17T22:01:07.360Z,2.17
2023-05-17T22:03:34.945Z,2.22
2023-05-17T22:06:02.777Z,2.33
2023-05-17T22:08:30.115Z,2.42
2023-05-17T22:10:57.750Z,3.20
2023-05-17T22:13:26.268Z,3.03
2023-05-17T22:15:57.193Z,2.10
2023-05-17T22:18:26.746Z,2.47
2023-05-17T22:20:55.385Z,2.42
2023-05-17T22:23:22.720Z,2.50
2023-05-17T22:25:50.656Z,1.88
2023-05-17T22:28:18.060Z,1.83
2023-05-17T22:30:46.445Z,1.92
2023-05-17T22:33:13.780Z,1.80
2023-05-17T22:35:41.562Z,1.83
2023-05-17T22:38:08.897Z,2.10
2023-05-17T22:40:36.577Z,1.67
2023-05-17T22:43:04.287Z,2.75
2023-05-17T22:45:33.286Z,2.13
2023-05-17T22:48:03.099Z,1.50
2023-05-17T22:50:31.272Z,2.40
2023-05-17T22:52:58.828Z,1.85
2023-05-17T22:55:26.495Z,1.50
2023-05-17T22:57:53.989Z,1.80
2023-05-17T23:00:21.702Z,2.38
2023-05-17T23:02:49.195Z,1.92
2023-05-17T23:05:17.024Z,1.77
2023-05-17T23:07:45.025Z,1.77
2023-05-17T23:10:12.808Z,2.10
2023-05-17T23:12:40.220Z,2.25
2023-05-17T23:15:08.257Z,1.75
2023-05-17T23:17:36.430Z,1.98
2023-05-17T23:20:10.234Z,1.65
2023-05-17T23:22:38.789Z,1.25
2023-05-17T23:25:07.189Z,2.08
2023-05-17T23:27:35.469Z,3.30
2023-05-17T23:30:04.491Z,4.10
2023-05-17T23:32:32.757Z,2.00
2023-05-17T23:35:03.764Z,2.05
2023-05-17T23:37:31.815Z,2.53
2023-05-17T23:40:00.108Z,2.00
2023-05-17T23:42:29.363Z,2.15
2023-05-17T23:44:57.318Z,1.67
2023-05-17T23:47:24.820Z,2.70
2023-05-17T23:49:52.786Z,2.30
2023-05-17T23:52:20.202Z,1.80
2023-05-17T23:54:48.013Z,3.67
2023-05-17T23:57:15.387Z,3.00
2023-05-17T23:59:43.055Z,3.42
